createdAt,value
2017-03-26T00:00:15.221Z,97.81
2017-03-26T00:01:27.996Z,97.52
2017-03-26T00:02:41.219Z,97.19
2017-03-26T00:03:54.456Z,96.75
2017-03-26T00:05:07.179Z,96.94
2017-03-26T00:06:20.457Z,96.42
2017-03-26T00:07:33.750Z,96.42
2017-03-26T00:08:47.080Z,94.45
2017-03-26T00:10:00.345Z,95.17
2017-03-26T00:11:13.101Z,95.55
2017-03-26T00:12:26.387Z,95.75
2017-03-26T00:13:39.629Z,95.7
2017-03-26T00:14:52.914Z,96.61
2017-03-26T00:16:06.197Z,95.7
2017-03-26T00:17:18.995Z,96.51
2017-03-26T00:18:32.296Z,96.56
2017-03-26T00:19:45.536Z,96.85
2017-03-26T00:20:58.795Z,96.75
2017-03-26T00:22:12.066Z,97.71
2017-03-26T00:23:25.331Z,96.37
2017-03-26T00:24:38.088Z,96.56
2017-03-26T00:25:51.347Z,96.17
2017-03-26T00:27:04.603Z,97.71
2017-03-26T00:28:17.866Z,97.33
2017-03-26T00:29:31.126Z,97.81
2017-03-26T00:30:44.423Z,97.71
2017-03-26T00:31:57.170Z,97.91
2017-03-26T00:33:10.433Z,97.91
2017-03-26T00:34:23.700Z,97.62
2017-03-26T00:35:36.942Z,98.1
2017-03-26T00:36:50.179Z,98.1
2017-03-26T00:38:03.444Z,97.91
2017-03-26T00:39:16.196Z,97.91
2017-03-26T00:40:28.996Z,97.81
2017-03-26T00:41:42.275Z,98.19
2017-03-26T00:42:55.508Z,97.71
2017-03-26T00:44:08.750Z,97.71
2017-03-26T00:45:22.025Z,97.81
2017-03-26T00:46:34.265Z,97.91
2017-03-26T00:47:47.501Z,97.24
2017-03-26T00:49:00.747Z,98.19
2017-03-26T00:50:13.500Z,97.71
2017-03-26T00:51:26.242Z,98.1
2017-03-26T00:52:39.502Z,99.15
2017-03-26T00:53:52.889Z,99.73
2017-03-26T00:55:05.676Z,99.15
2017-03-26T00:56:18.941Z,98.96
2017-03-26T00:57:32.242Z,99.06
2017-03-26T00:58:45.750Z,99.25
2017-03-26T00:59:59.674Z,99.78
2017-03-26T01:01:13.062Z,99.83
2017-03-26T01:02:26.987Z,99.99
2017-03-26T01:03:40.947Z,99.99
2017-03-26T01:04:54.923Z,99.15
2017-03-26T01:06:08.854Z,97.81
2017-03-26T01:07:22.788Z,97.91
2017-03-26T01:08:36.712Z,98.1
2017-03-26T01:09:50.659Z,98
2017-03-26T01:11:04.637Z,97.14
2017-03-26T01:12:18.581Z,97.24
2017-03-26T01:13:31.401Z,97.14
2017-03-26T01:14:45.362Z,97.71
2017-03-26T01:15:59.329Z,96.75
2017-03-26T01:17:12.704Z,97.33
2017-03-26T01:18:26.137Z,97.24
2017-03-26T01:19:40.072Z,97.81
2017-03-26T01:20:54.009Z,97.91
2017-03-26T01:22:07.987Z,97.42
2017-03-26T01:23:21.384Z,97.24
2017-03-26T01:24:35.340Z,97.04
2017-03-26T01:25:49.263Z,97.62
2017-03-26T01:27:03.226Z,97.42
2017-03-26T01:28:16.049Z,97.71
2017-03-26T01:29:29.453Z,97.71
2017-03-26T01:30:42.829Z,97.81
2017-03-26T01:31:56.761Z,98.29
2017-03-26T01:33:10.714Z,98.29
2017-03-26T01:34:24.637Z,97.91
2017-03-26T01:35:38.576Z,97.91
2017-03-26T01:36:52.549Z,98.1
2017-03-26T01:38:06.483Z,98.1
2017-03-26T01:39:19.867Z,98.19
2017-03-26T01:40:33.819Z,98.48
2017-03-26T01:41:47.760Z,97.81
2017-03-26T01:43:01.716Z,97.42
2017-03-26T01:44:15.707Z,97.81
2017-03-26T01:45:29.670Z,97.04
2017-03-26T01:46:43.612Z,97.71
2017-03-26T01:47:57.572Z,97.24
2017-03-26T01:49:11.517Z,97.33
2017-03-26T01:50:25.440Z,97.33
2017-03-26T01:51:38.832Z,96.75
2017-03-26T01:52:52.765Z,97.42
2017-03-26T01:54:06.709Z,96.17
2017-03-26T01:55:20.654Z,96.37
2017-03-26T01:56:34.604Z,95.98
2017-03-26T01:57:47.972Z,96.66
2017-03-26T01:59:01.889Z,96.94
2017-03-26T02:00:15.837Z,97.42
2017-03-26T02:01:29.239Z,97.33
2017-03-26T02:02:43.200Z,97.71
2017-03-26T02:03:57.174Z,96.94
2017-03-26T02:05:11.257Z,97.33
2017-03-26T02:06:24.919Z,96.27
2017-03-26T02:07:38.284Z,96.94
2017-03-26T02:08:52.273Z,96.66
2017-03-26T02:10:06.235Z,96.47
2017-03-26T02:11:20.183Z,96.75
2017-03-26T02:12:34.102Z,96.85
2017-03-26T02:13:48.080Z,97.04
2017-03-26T02:15:02.031Z,96.37
2017-03-26T02:16:15.979Z,96.37
2017-03-26T02:17:29.972Z,96.08
2017-03-26T02:18:43.315Z,96.47
2017-03-26T02:19:57.286Z,95.31
2017-03-26T02:21:11.228Z,96.75
2017-03-26T02:22:24.601Z,96.37
2017-03-26T02:23:38.592Z,95.98
2017-03-26T02:24:52.534Z,96.27
2017-03-26T02:26:06.480Z,96.56
2017-03-26T02:27:20.410Z,96.27
2017-03-26T02:28:34.408Z,96.22
2017-03-26T02:29:48.372Z,97.19
2017-03-26T02:31:02.298Z,97.66
2017-03-26T02:32:16.292Z,98.05
2017-03-26T02:33:30.254Z,97.86
2017-03-26T02:34:44.202Z,97.66
2017-03-26T02:35:58.125Z,97.57
2017-03-26T02:37:12.088Z,97.57
2017-03-26T02:38:25.009Z,97.76
2017-03-26T02:39:37.831Z,97.86
2017-03-26T02:40:51.758Z,97.66
2017-03-26T02:42:05.735Z,97.86
2017-03-26T02:43:19.666Z,97.66
2017-03-26T02:44:33.612Z,97.19
2017-03-26T02:45:47.557Z,96.89
2017-03-26T02:47:01.486Z,98.05
2017-03-26T02:48:15.439Z,97.86
2017-03-26T02:49:28.858Z,98.34
2017-03-26T02:50:42.764Z,98.34
2017-03-26T02:51:56.695Z,98.34
2017-03-26T02:53:10.650Z,98.91
2017-03-26T02:54:24.582Z,99.58
2017-03-26T02:55:38.537Z,98.82
2017-03-26T02:56:52.499Z,99.99
2017-03-26T02:58:06.452Z,99.99
2017-03-26T02:59:20.406Z,99.99
2017-03-26T03:00:33.798Z,99.99
2017-03-26T03:01:47.792Z,99.99
2017-03-26T03:03:01.795Z,99.99
2017-03-26T03:04:15.759Z,99.99
2017-03-26T03:05:29.767Z,99.99
2017-03-26T03:06:43.195Z,99.99
2017-03-26T03:07:56.553Z,99.99
2017-03-26T03:09:10.476Z,99.99
2017-03-26T03:10:24.463Z,99.99
2017-03-26T03:11:37.842Z,99.99
2017-03-26T03:12:51.817Z,99.99
2017-03-26T03:14:05.760Z,99.99
2017-03-26T03:15:19.724Z,99.99
2017-03-26T03:16:33.678Z,99.99
2017-03-26T03:17:47.648Z,99.99
2017-03-26T03:19:01.633Z,99.99
2017-03-26T03:20:15.561Z,99.99
2017-03-26T03:21:29.487Z,99.99
2017-03-26T03:22:43.464Z,99.99
2017-03-26T03:23:56.849Z,99.99
2017-03-26T03:25:10.824Z,99.99
2017-03-26T03:26:24.752Z,99.99
2017-03-26T03:27:38.106Z,99.99
2017-03-26T03:28:52.021Z,99.99
2017-03-26T03:30:05.944Z,99.99
2017-03-26T03:31:19.875Z,99.99
2017-03-26T03:32:33.848Z,99.99
2017-03-26T03:33:47.828Z,99.99
2017-03-26T03:35:01.794Z,99.99
2017-03-26T03:36:15.145Z,99.99
2017-03-26T03:37:29.093Z,99.99
2017-03-26T03:38:42.461Z,99.99
2017-03-26T03:39:55.845Z,99.99
2017-03-26T03:41:09.785Z,99.99
2017-03-26T03:42:23.712Z,99.99
2017-03-26T03:43:37.078Z,99.99
2017-03-26T03:44:51.025Z,99.99
2017-03-26T03:46:05.020Z,99.99
2017-03-26T03:47:18.955Z,99.99
2017-03-26T03:48:32.908Z,99.99
2017-03-26T03:49:46.271Z,99.99
2017-03-26T03:51:00.220Z,99.99
2017-03-26T03:52:14.218Z,99.99
2017-03-26T03:53:28.161Z,99.99
2017-03-26T03:54:41.545Z,99.99
2017-03-26T03:55:55.501Z,99.99
2017-03-26T03:57:09.511Z,99.99
2017-03-26T03:58:23.457Z,99.99
2017-03-26T03:59:37.406Z,99.99
2017-03-26T04:00:50.784Z,99.99
2017-03-26T04:02:04.706Z,99.99
2017-03-26T04:03:18.092Z,99.99
2017-03-26T04:04:32.032Z,99.99
2017-03-26T04:05:45.978Z,99.99
2017-03-26T04:06:59.892Z,99.99
2017-03-26T04:08:13.274Z,99.99
2017-03-26T04:09:27.257Z,99.99
2017-03-26T04:10:40.666Z,99.99
2017-03-26T04:11:54.617Z,99.99
2017-03-26T04:13:08.564Z,99.99
2017-03-26T04:14:22.502Z,99.99
2017-03-26T04:15:36.446Z,99.99
2017-03-26T04:16:50.433Z,99.99
2017-03-26T04:18:04.369Z,99.99
2017-03-26T04:19:17.796Z,99.99
2017-03-26T04:20:31.732Z,99.99
2017-03-26T04:21:45.708Z,99.99
2017-03-26T04:22:59.613Z,99.99
2017-03-26T04:24:13.578Z,99.99
2017-03-26T04:25:27.507Z,99.99
2017-03-26T04:26:41.470Z,99.99
2017-03-26T04:27:55.478Z,99.99
2017-03-26T04:29:09.420Z,99.99
2017-03-26T04:30:23.346Z,99.99
2017-03-26T04:31:37.321Z,99.99
2017-03-26T04:32:51.251Z,99.99
2017-03-26T04:34:04.663Z,99.99
2017-03-26T04:35:18.626Z,99.99
2017-03-26T04:36:32.621Z,99.99
2017-03-26T04:37:46.029Z,99.99
2017-03-26T04:38:59.951Z,99.99
2017-03-26T04:40:13.870Z,99.99
2017-03-26T04:41:27.259Z,99.99
2017-03-26T04:42:41.218Z,99.99
2017-03-26T04:43:55.176Z,99.99
2017-03-26T04:45:09.141Z,99.99
2017-03-26T04:46:22.515Z,99.99
2017-03-26T04:47:36.464Z,99.99
2017-03-26T04:48:50.409Z,99.99
2017-03-26T04:50:04.358Z,99.99
2017-03-26T04:51:18.277Z,99.99
2017-03-26T04:52:32.188Z,99.99
2017-03-26T04:53:46.133Z,99.99
2017-03-26T04:55:00.125Z,99.99
2017-03-26T04:56:12.381Z,99.99
2017-03-26T04:57:26.433Z,99.99
2017-03-26T04:58:40.393Z,99.99
2017-03-26T04:59:54.327Z,99.99
2017-03-26T05:01:08.286Z,99.99
2017-03-26T05:02:22.214Z,99.99
2017-03-26T05:03:36.129Z,99.99
2017-03-26T05:04:49.491Z,99.99
2017-03-26T05:06:03.416Z,99.99
2017-03-26T05:07:17.358Z,99.99
2017-03-26T05:08:31.327Z,99.99
2017-03-26T05:09:45.310Z,99.99
2017-03-26T05:10:59.254Z,99.99
2017-03-26T05:12:12.683Z,99.99
2017-03-26T05:13:26.042Z,99.99
2017-03-26T05:14:40.629Z,99.99
2017-03-26T05:15:53.880Z,99.99
2017-03-26T05:17:07.103Z,99.99
2017-03-26T05:18:20.343Z,99.99
2017-03-26T05:19:33.546Z,99.99
2017-03-26T05:20:46.786Z,99.99
2017-03-26T05:21:59.997Z,99.99
2017-03-26T05:23:12.756Z,99.99
2017-03-26T05:24:26.075Z,99.99
2017-03-26T05:25:39.295Z,99.99
2017-03-26T05:26:52.494Z,99.99
2017-03-26T05:28:05.717Z,99.99
2017-03-26T05:29:18.974Z,99.99
2017-03-26T05:30:31.684Z,99.99
2017-03-26T05:31:44.889Z,99.99
2017-03-26T05:32:58.108Z,99.99
2017-03-26T05:34:10.811Z,99.99
2017-03-26T05:35:24.057Z,99.99
2017-03-26T05:36:37.305Z,99.99
2017-03-26T05:37:50.087Z,99.99
2017-03-26T05:39:03.327Z,99.99
2017-03-26T05:40:16.586Z,99.99
2017-03-26T05:41:29.814Z,99.99
2017-03-26T05:42:43.031Z,99.99
2017-03-26T05:43:56.275Z,99.99
2017-03-26T05:45:09.503Z,99.99
2017-03-26T05:46:22.730Z,99.99
2017-03-26T05:47:35.444Z,99.99
2017-03-26T05:48:48.686Z,99.99
2017-03-26T05:50:01.402Z,99.99
2017-03-26T05:51:14.644Z,99.99
2017-03-26T05:52:27.864Z,99.99
2017-03-26T05:53:41.107Z,99.99
2017-03-26T05:54:53.858Z,99.99
2017-03-26T05:56:06.592Z,99.99
2017-03-26T05:57:19.803Z,99.99
2017-03-26T05:58:33.072Z,99.99
2017-03-26T05:59:45.304Z,99.99
2017-03-26T06:00:58.556Z,99.99
2017-03-26T06:02:11.802Z,99.99
2017-03-26T06:03:25.047Z,99.99
2017-03-26T06:04:38.292Z,99.99
2017-03-26T06:05:51.562Z,99.99
2017-03-26T06:07:04.817Z,99.99
2017-03-26T06:08:18.083Z,99.99
2017-03-26T06:09:31.347Z,99.99
2017-03-26T06:10:44.576Z,99.99
2017-03-26T06:11:57.771Z,99.99
2017-03-26T06:13:10.961Z,99.99
2017-03-26T06:14:24.219Z,99.99
2017-03-26T06:15:37.441Z,99.99
2017-03-26T06:16:50.204Z,99.99
2017-03-26T06:18:03.487Z,99.99
2017-03-26T06:19:16.213Z,99.99
2017-03-26T06:20:29.454Z,99.99
2017-03-26T06:21:42.667Z,99.99
2017-03-26T06:22:55.927Z,99.99
2017-03-26T06:24:09.177Z,99.99
2017-03-26T06:25:22.414Z,99.99
2017-03-26T06:26:35.659Z,99.99
2017-03-26T06:27:48.919Z,99.99
2017-03-26T06:29:02.149Z,99.99
2017-03-26T06:30:15.409Z,99.99
2017-03-26T06:31:28.650Z,99.99
2017-03-26T06:32:41.367Z,99.99
2017-03-26T06:33:54.591Z,99.99
2017-03-26T06:35:07.826Z,99.99
2017-03-26T06:36:21.057Z,99.99
2017-03-26T06:37:34.301Z,99.99
2017-03-26T06:38:47.583Z,99.99
2017-03-26T06:40:00.806Z,99.99
2017-03-26T06:41:14.054Z,99.99
2017-03-26T06:42:26.755Z,99.99
2017-03-26T06:43:40.002Z,99.99
2017-03-26T06:44:53.262Z,99.99
2017-03-26T06:46:06.482Z,99.99
2017-03-26T06:47:19.734Z,99.99
2017-03-26T06:48:32.998Z,99.99
2017-03-26T06:49:46.246Z,99.99
2017-03-26T06:50:59.473Z,99.99
2017-03-26T06:52:12.684Z,99.99
2017-03-26T06:53:25.907Z,99.99
2017-03-26T06:54:39.134Z,99.99
2017-03-26T06:55:52.334Z,99.99
2017-03-26T06:57:05.543Z,99.99
2017-03-26T06:58:18.773Z,99.99
2017-03-26T06:59:30.999Z,99.99
2017-03-26T07:00:44.246Z,99.99
2017-03-26T07:01:57.473Z,99.99
2017-03-26T07:03:10.718Z,99.99
2017-03-26T07:04:23.425Z,99.99
2017-03-26T07:05:36.651Z,99.99
2017-03-26T07:06:49.875Z,99.99
2017-03-26T07:08:03.084Z,99.99
2017-03-26T07:09:15.807Z,99.99
2017-03-26T07:10:28.561Z,99.99
2017-03-26T07:11:41.767Z,99.99
2017-03-26T07:12:55.019Z,99.99
2017-03-26T07:14:08.270Z,99.99
2017-03-26T07:15:21.517Z,99.99
2017-03-26T07:16:34.303Z,99.99
2017-03-26T07:17:47.559Z,99.99
2017-03-26T07:19:00.784Z,99.99
2017-03-26T07:20:14.042Z,99.99
2017-03-26T07:21:27.273Z,99.99
2017-03-26T07:22:40.499Z,99.99
2017-03-26T07:23:53.755Z,99.99
2017-03-26T07:25:06.955Z,99.99
2017-03-26T07:26:20.221Z,99.99
2017-03-26T07:27:32.978Z,99.99
2017-03-26T07:28:46.215Z,99.99
2017-03-26T07:29:59.438Z,99.99
2017-03-26T07:31:11.160Z,99.99
2017-03-26T07:32:23.899Z,99.99
2017-03-26T07:33:37.162Z,99.99
2017-03-26T07:34:50.390Z,99.99
2017-03-26T07:36:03.604Z,99.99
2017-03-26T07:37:16.818Z,99.99
2017-03-26T07:38:30.026Z,99.99
2017-03-26T07:39:43.249Z,99.99
2017-03-26T07:40:56.467Z,99.99
2017-03-26T07:42:09.179Z,99.99
2017-03-26T07:43:21.921Z,99.99
2017-03-26T07:44:35.186Z,99.99
2017-03-26T07:45:48.426Z,99.99
2017-03-26T07:47:01.632Z,99.99
2017-03-26T07:48:13.845Z,99.99
2017-03-26T07:49:27.088Z,99.99
2017-03-26T07:50:40.328Z,99.99
2017-03-26T07:51:53.575Z,99.99
2017-03-26T07:53:06.320Z,99.99
2017-03-26T07:54:19.566Z,99.99
2017-03-26T07:55:32.344Z,99.99
2017-03-26T07:56:45.580Z,99.99
2017-03-26T07:57:58.820Z,99.99
2017-03-26T07:59:12.074Z,99.99
2017-03-26T08:00:24.277Z,99.99
2017-03-26T08:01:37.002Z,99.99
2017-03-26T08:02:50.215Z,99.99
2017-03-26T08:04:03.454Z,99.99
2017-03-26T08:05:15.657Z,99.99
2017-03-26T08:06:28.899Z,99.99
2017-03-26T08:07:42.164Z,99.99
2017-03-26T08:08:55.478Z,99.99
2017-03-26T08:10:08.163Z,99.99
2017-03-26T08:11:20.416Z,99.99
2017-03-26T08:12:33.115Z,99.99
2017-03-26T08:13:46.349Z,99.99
2017-03-26T08:14:59.577Z,99.99
2017-03-26T08:16:12.255Z,99.99
2017-03-26T08:17:25.465Z,99.99
2017-03-26T08:18:38.671Z,99.99
2017-03-26T08:19:51.863Z,99.99
2017-03-26T08:21:05.074Z,99.99
2017-03-26T08:22:18.288Z,99.99
2017-03-26T08:23:31.496Z,99.99
2017-03-26T08:24:44.727Z,99.99
2017-03-26T08:25:57.983Z,99.99
2017-03-26T08:27:11.221Z,99.99
2017-03-26T08:28:23.946Z,99.99
2017-03-26T08:29:37.171Z,99.99
2017-03-26T08:30:50.367Z,99.99
2017-03-26T08:32:03.581Z,99.99
2017-03-26T08:33:16.756Z,99.99
2017-03-26T08:34:29.986Z,99.99
2017-03-26T08:35:43.225Z,99.99
2017-03-26T08:36:56.443Z,99.99
2017-03-26T08:38:09.638Z,99.99
2017-03-26T08:39:22.867Z,99.99
2017-03-26T08:40:36.091Z,99.99
2017-03-26T08:41:49.305Z,99.99
2017-03-26T08:43:02.023Z,99.99
2017-03-26T08:44:15.228Z,99.99
2017-03-26T08:45:28.452Z,99.99
2017-03-26T08:46:41.646Z,99.99
2017-03-26T08:47:54.850Z,99.99
2017-03-26T08:49:08.076Z,99.99
2017-03-26T08:50:21.288Z,99.99
2017-03-26T08:51:33.984Z,99.99
2017-03-26T08:52:47.185Z,99.99
2017-03-26T08:54:00.405Z,99.99
2017-03-26T08:55:12.636Z,99.99
2017-03-26T08:56:25.840Z,99.99
2017-03-26T08:57:38.024Z,99.99
2017-03-26T08:58:51.281Z,99.99
2017-03-26T09:00:03.967Z,99.99
2017-03-26T09:01:17.174Z,99.99
2017-03-26T09:02:30.371Z,99.99
2017-03-26T09:03:43.576Z,99.99
2017-03-26T09:04:56.781Z,99.99
2017-03-26T09:06:09.977Z,99.99
2017-03-26T09:07:23.231Z,99.99
2017-03-26T09:08:35.933Z,99.99
2017-03-26T09:09:49.140Z,99.99
2017-03-26T09:11:02.341Z,99.99
2017-03-26T09:12:15.560Z,99.99
2017-03-26T09:13:28.781Z,99.99
2017-03-26T09:14:41.986Z,99.99
2017-03-26T09:15:54.699Z,99.99
2017-03-26T09:17:07.440Z,99.99
2017-03-26T09:18:20.653Z,99.99
2017-03-26T09:19:33.376Z,99.99
2017-03-26T09:20:46.594Z,99.99
2017-03-26T09:21:59.803Z,99.99
2017-03-26T09:23:13.031Z,99.99
2017-03-26T09:24:26.251Z,99.99
2017-03-26T09:25:39.486Z,99.99
2017-03-26T09:26:52.779Z,99.99
2017-03-26T09:28:06.000Z,99.99
2017-03-26T09:29:19.250Z,99.99
2017-03-26T09:30:31.951Z,99.99
2017-03-26T09:31:44.637Z,99.99
2017-03-26T09:32:57.873Z,99.99
2017-03-26T09:34:10.623Z,99.99
2017-03-26T09:35:23.341Z,99.99
2017-03-26T09:36:36.054Z,99.99
2017-03-26T09:37:49.266Z,99.99
2017-03-26T09:39:02.511Z,99.99
2017-03-26T09:40:15.751Z,99.99
2017-03-26T09:41:27.451Z,99.99
2017-03-26T09:42:40.697Z,99.99
2017-03-26T09:43:53.895Z,99.99
2017-03-26T09:45:06.632Z,99.99
2017-03-26T09:46:19.864Z,99.99
2017-03-26T09:47:33.120Z,99.99
2017-03-26T09:48:46.385Z,99.99
2017-03-26T09:49:59.650Z,99.99
2017-03-26T09:51:12.896Z,99.99
2017-03-26T09:52:25.621Z,99.99
2017-03-26T09:53:38.873Z,99.99
2017-03-26T09:54:51.619Z,99.99
2017-03-26T09:56:04.814Z,98.24
2017-03-26T09:57:17.519Z,96.8
2017-03-26T09:58:30.746Z,94.73
2017-03-26T09:59:43.447Z,93.09
2017-03-26T10:00:56.679Z,92.36
2017-03-26T10:02:09.954Z,92.27
2017-03-26T10:03:23.182Z,92.17
2017-03-26T10:04:36.432Z,91.3
2017-03-26T10:05:49.699Z,90.92
2017-03-26T10:07:02.942Z,91.4
2017-03-26T10:08:16.307Z,91.64
2017-03-26T10:09:29.564Z,91.88
2017-03-26T10:10:42.795Z,93.28
2017-03-26T10:11:56.065Z,95.84
2017-03-26T10:13:09.307Z,98.19
2017-03-26T10:14:22.536Z,99.78
2017-03-26T10:15:35.760Z,99.99
2017-03-26T10:16:49.003Z,99.99
2017-03-26T10:18:02.212Z,99.99
2017-03-26T10:19:15.449Z,99.99
2017-03-26T10:20:28.699Z,99.99
2017-03-26T10:21:41.917Z,99.99
2017-03-26T10:22:55.111Z,99.99
2017-03-26T10:24:08.332Z,99.99
2017-03-26T10:25:21.562Z,99.99
2017-03-26T10:26:34.817Z,99.99
2017-03-26T10:27:48.024Z,99.99
2017-03-26T10:29:01.284Z,99.99
2017-03-26T10:30:14.484Z,99.99
2017-03-26T10:31:27.219Z,99.11
2017-03-26T10:32:40.527Z,94.39
2017-03-26T10:33:53.804Z,90.72
2017-03-26T10:35:06.541Z,86.76
2017-03-26T10:36:19.794Z,83.72
2017-03-26T10:37:32.513Z,80.03
2017-03-26T10:38:45.751Z,78.46
2017-03-26T10:39:59.016Z,75.98
2017-03-26T10:41:12.225Z,77.73
2017-03-26T10:42:25.458Z,78.66
2017-03-26T10:43:38.732Z,80.65
2017-03-26T10:44:51.982Z,81.67
2017-03-26T10:46:04.204Z,82.4
2017-03-26T10:47:17.446Z,83.85
2017-03-26T10:48:30.693Z,83.75
2017-03-26T10:49:43.958Z,81.92
2017-03-26T10:50:57.220Z,82.94
2017-03-26T10:52:09.986Z,83.23
2017-03-26T10:53:23.221Z,84.83
2017-03-26T10:54:36.447Z,86.43
2017-03-26T10:55:49.737Z,86.24
2017-03-26T10:57:03.067Z,84.83
2017-03-26T10:58:15.782Z,82.75
2017-03-26T10:59:29.127Z,82.79
2017-03-26T11:00:42.412Z,81.92
2017-03-26T11:01:55.624Z,83.14
2017-03-26T11:03:08.872Z,82.46
2017-03-26T11:04:21.586Z,82.02
2017-03-26T11:05:34.309Z,81.53
2017-03-26T11:06:47.551Z,80.57
2017-03-26T11:08:00.838Z,80.76
2017-03-26T11:09:13.575Z,80.86
2017-03-26T11:10:26.340Z,83.14
2017-03-26T11:11:39.575Z,84.93
2017-03-26T11:12:52.841Z,86.14
2017-03-26T11:14:06.102Z,87.06
2017-03-26T11:15:19.316Z,87.45
2017-03-26T11:16:32.579Z,85.56
2017-03-26T11:17:45.340Z,84.64
2017-03-26T11:18:58.601Z,79.56
2017-03-26T11:20:11.840Z,77.8
2017-03-26T11:21:24.040Z,76.93
2017-03-26T11:22:35.764Z,76.59
2017-03-26T11:23:49.025Z,77.36
2017-03-26T11:25:00.750Z,77.84
2017-03-26T11:26:14.043Z,77.75
2017-03-26T11:27:27.335Z,79.16
2017-03-26T11:28:40.580Z,78.67
2017-03-26T11:29:53.330Z,79.54
2017-03-26T11:31:06.576Z,78.58
2017-03-26T11:32:19.794Z,78.48
2017-03-26T11:33:33.052Z,80.76
2017-03-26T11:34:46.268Z,81.49
2017-03-26T11:35:59.510Z,81.98
2017-03-26T11:37:12.809Z,83.04
2017-03-26T11:38:25.512Z,84.83
2017-03-26T11:39:38.756Z,84.41
2017-03-26T11:40:51.984Z,84.69
2017-03-26T11:42:05.289Z,85.61
2017-03-26T11:43:18.511Z,85.13
2017-03-26T11:44:30.726Z,86.58
2017-03-26T11:45:44.087Z,86.29
2017-03-26T11:46:57.311Z,86.48
2017-03-26T11:48:10.523Z,84.36
2017-03-26T11:49:23.748Z,83.15
2017-03-26T11:50:36.512Z,81.26
2017-03-26T11:51:49.736Z,78.44
2017-03-26T11:53:02.450Z,73.3
2017-03-26T11:54:15.703Z,72.5
2017-03-26T11:55:28.415Z,70.66
2017-03-26T11:56:41.124Z,70.11
2017-03-26T11:57:53.847Z,70.6
2017-03-26T11:59:06.600Z,70.98
2017-03-26T12:00:18.843Z,72.02
2017-03-26T12:01:32.078Z,71.34
2017-03-26T12:02:45.315Z,70.31
2017-03-26T12:03:58.588Z,71.86
2017-03-26T12:05:11.855Z,71.44
2017-03-26T12:06:25.121Z,72.79
2017-03-26T12:07:38.383Z,74.01
2017-03-26T12:08:51.610Z,73.3
2017-03-26T12:10:04.319Z,73.1
2017-03-26T12:11:15.507Z,71.69
2017-03-26T12:12:28.238Z,68.95
2017-03-26T12:13:41.456Z,70.4
2017-03-26T12:14:54.755Z,71.86
2017-03-26T12:16:06.973Z,72.95
2017-03-26T12:17:19.704Z,73.04
2017-03-26T12:18:32.979Z,72.27
2017-03-26T12:19:46.251Z,70.82
2017-03-26T12:20:59.490Z,70.76
2017-03-26T12:22:12.765Z,69.63
2017-03-26T12:23:25.036Z,67.72
2017-03-26T12:24:38.253Z,66.11
2017-03-26T12:25:51.562Z,64.69
2017-03-26T12:27:04.848Z,65.5
2017-03-26T12:28:18.091Z,65.75
2017-03-26T12:29:31.341Z,67.37
2017-03-26T12:30:44.586Z,65.63
2017-03-26T12:31:57.323Z,66.24
2017-03-26T12:33:10.580Z,68.99
2017-03-26T12:34:23.858Z,72.11
2017-03-26T12:35:37.121Z,73.3
2017-03-26T12:36:49.357Z,73.68
2017-03-26T12:38:02.652Z,72.42
2017-03-26T12:39:15.413Z,72.27
2017-03-26T12:40:28.691Z,69.31
2017-03-26T12:41:41.941Z,68.56
2017-03-26T12:42:54.708Z,69.15
2017-03-26T12:44:07.965Z,70.86
2017-03-26T12:45:21.202Z,71.11
2017-03-26T12:46:34.436Z,71.78
2017-03-26T12:47:47.170Z,72.17
2017-03-26T12:48:59.885Z,72.17
2017-03-26T12:50:12.630Z,73.01
2017-03-26T12:51:25.863Z,72.91
2017-03-26T12:52:39.126Z,72.46
2017-03-26T12:53:52.425Z,72.24
2017-03-26T12:55:05.675Z,71.98
2017-03-26T12:56:18.402Z,70.18
2017-03-26T12:57:31.130Z,69.11
2017-03-26T12:58:44.379Z,70.66
2017-03-26T12:59:57.648Z,71.4
2017-03-26T13:01:10.393Z,71.94
2017-03-26T13:02:23.114Z,69.04
2017-03-26T13:03:35.890Z,68.79
2017-03-26T13:04:49.178Z,68.49
2017-03-26T13:06:02.425Z,66.88
2017-03-26T13:07:15.171Z,66.14
2017-03-26T13:08:28.405Z,66.08
2017-03-26T13:09:41.183Z,64.43
2017-03-26T13:10:54.429Z,64.5
2017-03-26T13:12:07.695Z,66.56
2017-03-26T13:13:20.413Z,66.27
2017-03-26T13:14:32.641Z,66.56
2017-03-26T13:15:45.914Z,67.82
2017-03-26T13:16:59.163Z,68.27
2017-03-26T13:18:12.470Z,68.91
2017-03-26T13:19:25.735Z,68.24
2017-03-26T13:20:38.991Z,66.24
2017-03-26T13:21:51.733Z,65.01
2017-03-26T13:23:03.447Z,62.13
2017-03-26T13:24:16.730Z,59.38
2017-03-26T13:25:30.032Z,57.76
2017-03-26T13:26:43.260Z,58.08
2017-03-26T13:27:56.514Z,56.43
2017-03-26T13:29:40.964Z,54.29
2017-03-26T13:30:53.703Z,56.65
2017-03-26T13:32:06.914Z,58.61
2017-03-26T13:33:19.675Z,61.46
2017-03-26T13:34:32.952Z,63.04
2017-03-26T13:35:46.265Z,64.89
2017-03-26T13:36:59.515Z,64.95
2017-03-26T13:38:12.780Z,64.75
2017-03-26T13:39:26.041Z,64.79
2017-03-26T13:40:39.295Z,62.75
2017-03-26T13:41:52.561Z,61.55
2017-03-26T13:43:05.806Z,59.67
2017-03-26T13:44:19.130Z,59.22
2017-03-26T13:45:31.379Z,58.93
2017-03-26T13:46:44.631Z,58.61
2017-03-26T13:47:57.879Z,62.16
2017-03-26T13:49:11.123Z,61.36
2017-03-26T13:50:24.401Z,58.39
2017-03-26T13:51:37.201Z,58.34
2017-03-26T13:52:50.464Z,58.93
2017-03-26T13:54:03.712Z,59.77
2017-03-26T13:55:16.996Z,62.65
2017-03-26T13:56:29.735Z,63.27
2017-03-26T13:57:43.006Z,63.53
2017-03-26T13:58:56.292Z,62.56
2017-03-26T14:00:09.051Z,62.56
2017-03-26T14:01:22.307Z,63.43
2017-03-26T14:02:35.034Z,59.94
2017-03-26T14:03:47.812Z,57.36
2017-03-26T14:05:01.080Z,58.94
2017-03-26T14:06:14.353Z,57.12
2017-03-26T14:07:27.117Z,57.54
2017-03-26T14:08:40.409Z,55.33
2017-03-26T14:09:53.647Z,56.24
2017-03-26T14:11:06.376Z,57.08
2017-03-26T14:12:19.603Z,57.54
2017-03-26T14:13:32.837Z,56.28
2017-03-26T14:14:46.131Z,56.86
2017-03-26T14:15:59.445Z,58.22
2017-03-26T14:17:12.712Z,57.08
2017-03-26T14:18:26.005Z,57.83
2017-03-26T14:19:39.327Z,59.06
2017-03-26T14:20:52.581Z,59.88
2017-03-26T14:22:05.837Z,59.59
2017-03-26T14:23:19.102Z,57.75
2017-03-26T14:24:32.353Z,57.09
2017-03-26T14:25:45.073Z,56.39
2017-03-26T14:26:58.291Z,58.62
2017-03-26T14:28:11.071Z,55.52
2017-03-26T14:29:23.858Z,53.92
2017-03-26T14:30:36.594Z,53.44
2017-03-26T14:31:49.818Z,54.14
2017-03-26T14:33:03.093Z,54.24
2017-03-26T14:34:16.375Z,54.36
2017-03-26T14:35:29.643Z,55.69
2017-03-26T14:36:42.406Z,55.31
2017-03-26T14:37:55.140Z,52.62
2017-03-26T14:39:08.412Z,51.7
2017-03-26T14:40:21.665Z,53.54
2017-03-26T14:41:34.911Z,53.13
2017-03-26T14:42:48.165Z,52.57
2017-03-26T14:44:01.416Z,52.35
2017-03-26T14:45:14.701Z,52.25
2017-03-26T14:46:27.963Z,54.66
2017-03-26T14:47:41.191Z,55.18
2017-03-26T14:48:54.445Z,54.48
2017-03-26T14:50:07.180Z,54.19
2017-03-26T14:51:19.436Z,53.24
2017-03-26T14:52:32.174Z,53.27
2017-03-26T14:53:45.418Z,52.72
2017-03-26T14:54:58.662Z,53.45
2017-03-26T14:56:11.382Z,54.52
2017-03-26T14:57:24.604Z,54.32
2017-03-26T14:58:37.871Z,53.38
2017-03-26T14:59:51.195Z,55.39
2017-03-26T15:01:03.964Z,56.62
2017-03-26T15:02:17.203Z,53.32
2017-03-26T15:03:30.440Z,54.49
2017-03-26T15:04:43.159Z,54.49
2017-03-26T15:05:56.399Z,52.67
2017-03-26T15:07:09.636Z,51.53
2017-03-26T15:08:22.844Z,51.94
2017-03-26T15:09:35.577Z,51.33
2017-03-26T15:10:48.812Z,51.26
2017-03-26T15:12:02.050Z,50.48
2017-03-26T15:13:13.828Z,50.51
2017-03-26T15:14:26.589Z,49.73
2017-03-26T15:15:39.329Z,49.63
2017-03-26T15:16:52.583Z,50.38
2017-03-26T15:18:05.332Z,51.62
2017-03-26T15:19:18.065Z,52.79
2017-03-26T15:20:31.328Z,55.1
2017-03-26T15:21:44.543Z,54.36
2017-03-26T15:22:57.264Z,55.73
2017-03-26T15:24:10.522Z,53.71
2017-03-26T15:25:23.792Z,51.53
2017-03-26T15:26:36.581Z,51.17
2017-03-26T15:27:49.816Z,49.73
2017-03-26T15:29:03.077Z,48.75
2017-03-26T15:30:16.332Z,46.83
2017-03-26T15:31:29.606Z,47.44
2017-03-26T15:32:41.839Z,45.88
2017-03-26T15:33:54.586Z,47.75
2017-03-26T15:35:07.338Z,47.34
2017-03-26T15:36:20.599Z,48.78
2017-03-26T15:37:33.335Z,48
2017-03-26T15:38:46.575Z,45.2
2017-03-26T15:39:59.838Z,43.93
2017-03-26T15:41:12.582Z,44.69
2017-03-26T15:42:25.337Z,44.89
2017-03-26T15:43:38.613Z,45.08
2017-03-26T15:44:51.898Z,45.49